createdAt,value
2017-05-22T13:12:43.955Z,21.9
2017-05-22T13:15:00.131Z,21.9
2017-05-22T13:16:08.218Z,22.0
2017-05-22T13:17:16.304Z,21.9
2017-05-22T13:18:24.460Z,21.9
2017-05-22T13:19:32.480Z,21.9
2017-05-22T13:20:40.565Z,21.9
2017-05-22T13:21:48.662Z,22.0
2017-05-22T13:22:56.826Z,21.9
2017-05-22T13:24:04.826Z,22.0
2017-05-22T13:25:12.919Z,22.0
2017-05-22T13:26:21.000Z,22.0
2017-05-22T13:27:29.088Z,22.0
2017-05-22T13:28:37.175Z,21.9
2017-05-22T13:29:45.262Z,22.0
2017-05-22T13:30:53.353Z,21.9
2017-05-22T13:32:01.438Z,22.0
2017-05-22T13:33:09.528Z,21.9
2017-05-22T13:34:17.612Z,22.0
2017-05-22T13:35:25.698Z,21.9
2017-05-22T13:36:33.788Z,22.0
2017-05-22T13:37:41.874Z,22.0
2017-05-22T13:38:49.958Z,22.1
2017-05-22T13:39:58.046Z,22.0
2017-05-22T13:41:06.135Z,21.9
2017-05-22T13:42:14.224Z,22.0
2017-05-22T13:43:22.318Z,22.0
2017-05-22T13:44:30.402Z,21.9
2017-05-22T13:45:38.484Z,22.0
2017-05-22T13:46:46.572Z,22.0
2017-05-22T13:47:54.658Z,22.0
2017-05-22T13:49:02.747Z,22.0
2017-05-22T13:50:10.832Z,22.1
2017-05-22T13:51:18.929Z,22.1
2017-05-22T13:52:27.011Z,22.1
2017-05-22T13:53:35.097Z,22.1
2017-05-22T13:54:43.181Z,22.1
2017-05-22T13:55:51.269Z,22.1
2017-05-22T13:56:59.355Z,22.1
2017-05-22T13:58:07.442Z,22.1
2017-05-22T13:59:15.534Z,22.1
2017-05-22T14:00:23.625Z,22.1
2017-05-22T14:01:31.711Z,22.1
2017-05-22T14:02:39.801Z,22.2
2017-05-22T14:03:47.887Z,22.1
2017-05-22T14:04:55.971Z,22.1
2017-05-22T14:06:04.059Z,22.1
2017-05-22T14:07:12.244Z,22.1
2017-05-22T14:08:20.235Z,22.0
2017-05-22T14:09:28.323Z,22.1
2017-05-22T14:10:36.747Z,22.1
2017-05-22T14:11:44.501Z,22.1
2017-05-22T14:12:52.598Z,22.1
2017-05-22T14:14:00.676Z,22.1
2017-05-22T14:15:08.927Z,22.1
2017-05-22T14:16:16.847Z,22.1
2017-05-22T14:17:25.416Z,22.2
2017-05-22T14:18:33.286Z,22.2
2017-05-22T14:19:41.112Z,22.2
2017-05-22T14:20:49.201Z,22.2
2017-05-22T14:21:57.284Z,22.1
2017-05-22T14:23:05.381Z,22.2
2017-05-22T14:24:13.459Z,22.2
2017-05-22T14:25:21.572Z,22.2
2017-05-22T14:26:29.632Z,22.2
2017-05-22T14:27:37.723Z,22.2
2017-05-22T14:28:45.810Z,22.2
2017-05-22T14:29:53.900Z,22.2
2017-05-22T14:31:01.985Z,22.3
2017-05-22T14:32:10.072Z,22.1
2017-05-22T14:33:18.159Z,22.2
2017-05-22T14:34:26.250Z,22.2
2017-05-22T14:35:34.334Z,22.2
2017-05-22T14:36:42.429Z,22.2
2017-05-22T14:37:50.519Z,22.3
2017-05-22T14:38:58.605Z,22.3
2017-05-22T14:40:06.754Z,22.2
2017-05-22T14:41:14.786Z,22.3
2017-05-22T14:42:22.890Z,22.3
2017-05-22T14:43:30.983Z,22.3
2017-05-22T14:44:39.067Z,22.3
2017-05-22T14:45:47.153Z,22.3
2017-05-22T14:46:55.240Z,22.3
2017-05-22T14:48:03.326Z,22.3
2017-05-22T14:49:11.412Z,22.3
2017-05-22T14:50:19.500Z,22.3
2017-05-22T14:51:27.592Z,22.2
2017-05-22T14:52:35.675Z,22.3
2017-05-22T14:53:43.767Z,22.2
2017-05-22T14:54:51.854Z,22.2
2017-05-22T14:55:59.937Z,22.3
2017-05-22T14:57:08.024Z,22.3
2017-05-22T14:58:16.112Z,22.3
2017-05-22T14:59:24.199Z,22.3
2017-05-22T15:00:32.287Z,22.4
2017-05-22T15:01:40.400Z,22.4
2017-05-22T15:02:48.487Z,22.3
2017-05-22T15:03:56.550Z,22.4
2017-05-22T15:05:04.637Z,22.4
2017-05-22T15:06:12.725Z,22.3
2017-05-22T15:07:20.812Z,22.4
2017-05-22T15:08:28.900Z,22.4
2017-05-22T15:09:36.985Z,22.4
2017-05-22T15:10:45.084Z,22.3
2017-05-22T15:11:53.171Z,22.3
2017-05-22T15:13:01.255Z,22.4
2017-05-22T15:14:09.396Z,22.4
2017-05-22T15:15:17.430Z,22.4
2017-05-22T15:16:25.520Z,22.4
2017-05-22T15:17:33.685Z,22.4
2017-05-22T15:18:41.792Z,22.4
2017-05-22T15:19:49.870Z,22.4
2017-05-22T15:20:57.865Z,22.4
2017-05-22T15:22:05.953Z,22.4
2017-05-22T15:23:14.041Z,22.4
2017-05-22T15:24:22.129Z,22.4
2017-05-22T15:25:30.219Z,22.3
2017-05-22T15:26:38.303Z,22.4
2017-05-22T15:27:46.391Z,22.4
2017-05-22T15:28:54.482Z,22.4
2017-05-22T15:30:02.566Z,22.4
2017-05-22T15:31:10.654Z,22.4
2017-05-22T15:32:18.740Z,22.4
2017-05-22T15:33:26.829Z,22.5
2017-05-22T15:34:34.926Z,22.3
2017-05-22T15:35:43.011Z,22.5
2017-05-22T15:36:51.097Z,22.5
2017-05-22T15:37:59.197Z,22.4
2017-05-22T15:39:07.280Z,22.5
2017-05-22T15:40:15.366Z,22.4
2017-05-22T15:41:23.456Z,22.4
2017-05-22T15:42:31.545Z,22.5
2017-05-22T15:43:39.628Z,22.5
2017-05-22T15:44:47.717Z,22.5
2017-05-22T15:45:55.811Z,22.5
2017-05-22T15:47:03.894Z,22.5
2017-05-22T15:48:12.032Z,22.5
2017-05-22T15:49:20.077Z,22.5
2017-05-22T15:50:28.157Z,22.5
2017-05-22T15:51:36.244Z,22.5
2017-05-22T15:52:44.450Z,22.5
2017-05-22T15:53:52.423Z,22.5
2017-05-22T15:55:00.507Z,22.5
2017-05-22T15:56:08.595Z,22.5
2017-05-22T15:57:16.685Z,22.5
2017-05-22T15:58:24.771Z,22.5
2017-05-22T15:59:32.866Z,22.5
2017-05-22T16:00:40.945Z,22.5
2017-05-22T16:01:49.031Z,22.5
2017-05-22T16:02:57.120Z,22.5
2017-05-22T16:04:05.208Z,22.5
2017-05-22T16:05:13.294Z,22.5
2017-05-22T16:06:21.381Z,22.6
2017-05-22T16:07:29.476Z,22.6
2017-05-22T16:08:37.568Z,22.5
2017-05-22T16:09:45.652Z,22.6
2017-05-22T16:10:53.740Z,22.6
2017-05-22T16:12:01.831Z,22.6
2017-05-22T16:13:09.924Z,22.6
2017-05-22T16:14:18.003Z,22.6
2017-05-22T16:15:26.091Z,22.6
2017-05-22T16:16:34.177Z,22.5
2017-05-22T16:17:42.269Z,22.6
2017-05-22T16:18:50.353Z,22.5
2017-05-22T16:19:58.441Z,22.5
2017-05-22T16:21:06.528Z,22.6
2017-05-22T16:22:14.620Z,22.6
2017-05-22T16:23:22.703Z,22.6
2017-05-22T16:24:30.791Z,22.5
2017-05-22T16:25:38.879Z,22.5
2017-05-22T16:26:46.968Z,22.5
2017-05-22T16:27:55.055Z,22.6
2017-05-22T16:29:03.141Z,22.5
2017-05-22T16:30:11.228Z,22.6
2017-05-22T16:31:19.315Z,22.6
2017-05-22T16:32:27.405Z,22.5
2017-05-22T16:33:35.490Z,22.6
2017-05-22T16:34:43.583Z,22.5
2017-05-22T16:35:51.667Z,22.6
2017-05-22T16:36:59.754Z,22.6
2017-05-22T16:38:07.842Z,22.5
2017-05-22T16:39:15.930Z,22.5
2017-05-22T16:40:24.016Z,22.5
2017-05-22T16:41:32.100Z,22.6
2017-05-22T16:42:40.189Z,22.6
2017-05-22T16:43:48.277Z,22.6
2017-05-22T16:44:56.367Z,22.5
2017-05-22T16:46:04.455Z,22.6
2017-05-22T16:47:12.541Z,22.6
2017-05-22T16:48:20.628Z,22.6
2017-05-22T16:49:28.716Z,22.6
2017-05-22T16:50:36.811Z,22.6
2017-05-22T16:51:44.897Z,22.6
2017-05-22T16:52:52.983Z,22.5
2017-05-22T16:54:01.073Z,22.6
2017-05-22T16:55:09.164Z,22.6
2017-05-22T16:56:17.247Z,22.5
2017-05-22T16:57:25.339Z,22.6
2017-05-22T16:58:33.424Z,22.5
2017-05-22T16:59:41.508Z,22.6
2017-05-22T17:00:49.597Z,22.6
2017-05-22T17:01:57.684Z,22.6
2017-05-22T17:03:05.773Z,22.6
2017-05-22T17:04:13.861Z,22.6
2017-05-22T17:05:21.950Z,22.6
2017-05-22T17:06:30.036Z,22.6
2017-05-22T17:07:38.155Z,22.6
2017-05-22T17:08:46.211Z,22.6
2017-05-22T17:09:54.300Z,22.6
2017-05-22T17:11:02.413Z,22.7
2017-05-22T17:12:10.479Z,22.6
2017-05-22T17:13:18.568Z,22.6
2017-05-22T17:14:26.651Z,22.7
2017-05-22T17:15:34.739Z,22.6
2017-05-22T17:16:42.827Z,22.6
2017-05-22T17:17:50.918Z,22.8
2017-05-22T17:18:59.001Z,22.7
2017-05-22T17:20:07.090Z,22.7
2017-05-22T17:21:15.176Z,22.7
2017-05-22T17:22:23.265Z,22.7
2017-05-22T17:23:31.354Z,22.8
2017-05-22T17:24:39.439Z,22.7
2017-05-22T17:25:47.528Z,22.8
2017-05-22T17:26:55.618Z,22.8
2017-05-22T17:28:03.702Z,22.7
2017-05-22T17:29:11.789Z,22.8
2017-05-22T17:30:19.876Z,22.8
2017-05-22T17:31:27.967Z,22.8
2017-05-22T17:32:36.056Z,22.8
2017-05-22T17:33:44.146Z,22.8
2017-05-22T17:34:52.230Z,22.8
2017-05-22T17:36:00.317Z,22.8
2017-05-22T17:37:08.420Z,22.8
2017-05-22T17:38:16.491Z,22.8
2017-05-22T17:39:24.580Z,22.8
2017-05-22T17:40:32.674Z,22.8
2017-05-22T17:41:40.758Z,22.9
2017-05-22T17:42:48.866Z,22.8
2017-05-22T17:43:56.932Z,22.8
2017-05-22T17:45:05.019Z,22.7
2017-05-22T17:46:13.107Z,22.8
2017-05-22T17:47:21.196Z,22.8
2017-05-22T17:48:29.293Z,22.8
2017-05-22T17:49:37.376Z,22.8
2017-05-22T17:50:45.464Z,22.8
2017-05-22T17:51:53.552Z,22.8
2017-05-22T17:53:01.646Z,22.8
2017-05-22T17:54:09.730Z,22.8
2017-05-22T17:55:17.815Z,22.8
2017-05-22T17:56:25.904Z,22.8
2017-05-22T17:57:33.993Z,22.8
2017-05-22T17:58:42.082Z,22.8
2017-05-22T17:59:50.247Z,22.8
2017-05-22T18:00:58.254Z,22.8
2017-05-22T18:02:06.347Z,22.8
2017-05-22T18:03:14.433Z,22.7
2017-05-22T18:04:22.518Z,22.8
2017-05-22T18:05:30.606Z,22.8
2017-05-22T18:06:38.691Z,22.8
2017-05-22T18:07:46.782Z,22.8
2017-05-22T18:08:55.217Z,22.8
2017-05-22T18:10:02.959Z,22.8
2017-05-22T18:11:11.044Z,22.8
2017-05-22T18:12:19.137Z,22.8
2017-05-22T18:13:27.221Z,22.8
2017-05-22T18:14:35.308Z,22.8
2017-05-22T18:15:43.394Z,22.8
2017-05-22T18:16:51.567Z,22.8
2017-05-22T18:17:59.568Z,22.8
2017-05-22T18:19:07.659Z,22.8
2017-05-22T18:20:15.752Z,22.7
2017-05-22T18:21:23.843Z,22.8
2017-05-22T18:22:31.930Z,22.8
2017-05-22T18:23:40.022Z,22.8
2017-05-22T18:24:48.107Z,22.8
2017-05-22T18:25:56.224Z,22.8
2017-05-22T18:27:04.287Z,22.8
2017-05-22T18:28:12.373Z,22.7
2017-05-22T18:29:20.460Z,22.8
2017-05-22T18:30:28.549Z,22.8
2017-05-22T18:31:36.639Z,22.8
2017-05-22T18:32:44.724Z,22.8
2017-05-22T18:33:52.820Z,22.7
2017-05-22T18:33:52.833Z,22.7
2017-05-22T18:35:00.904Z,22.8
2017-05-22T18:36:08.985Z,22.7
2017-05-22T18:37:17.079Z,22.8
2017-05-22T18:38:25.168Z,22.6
2017-05-22T18:39:33.260Z,22.7
2017-05-22T18:40:41.345Z,22.7
2017-05-22T18:41:49.429Z,22.7
2017-05-22T18:42:57.516Z,22.8
2017-05-22T18:44:05.605Z,22.7
2017-05-22T18:45:13.693Z,22.8
2017-05-22T18:46:21.781Z,22.6
2017-05-22T18:47:29.877Z,22.8
2017-05-22T18:48:38.010Z,22.6
2017-05-22T18:49:46.048Z,22.6
2017-05-22T18:50:54.135Z,22.7
2017-05-22T18:52:02.220Z,22.7
2017-05-22T18:53:10.308Z,22.7
2017-05-22T18:54:18.395Z,22.6
2017-05-22T18:55:26.483Z,22.7
2017-05-22T18:56:34.570Z,22.6
2017-05-22T18:57:42.662Z,22.6
2017-05-22T18:58:50.750Z,22.7
2017-05-22T18:59:58.844Z,22.6
2017-05-22T19:01:06.930Z,22.6
2017-05-22T19:02:15.018Z,22.6
2017-05-22T19:03:23.109Z,22.6
2017-05-22T19:04:31.197Z,22.7
2017-05-22T19:05:39.280Z,22.7
2017-05-22T19:06:47.379Z,22.6
2017-05-22T19:07:55.470Z,22.6
2017-05-22T19:09:03.547Z,22.6
2017-05-22T19:10:11.640Z,22.7
2017-05-22T19:11:19.754Z,22.6
2017-05-22T19:12:27.816Z,22.6
2017-05-22T19:13:35.899Z,22.6
2017-05-22T19:14:43.987Z,22.7
2017-05-22T19:15:52.087Z,22.6
2017-05-22T19:17:00.171Z,22.6
2017-05-22T19:18:08.252Z,22.6
2017-05-22T19:19:16.342Z,22.6
2017-05-22T19:20:24.434Z,22.6
2017-05-22T19:21:32.521Z,22.6
2017-05-22T19:22:40.606Z,22.6
2017-05-22T19:23:48.690Z,22.6
2017-05-22T19:24:56.779Z,22.6
2017-05-22T19:26:04.868Z,22.6
2017-05-22T19:27:12.953Z,22.6
2017-05-22T19:28:21.040Z,22.6
2017-05-22T19:29:29.127Z,22.6
2017-05-22T19:30:37.216Z,22.6
2017-05-22T19:31:45.371Z,22.6
2017-05-22T19:32:53.446Z,22.6
2017-05-22T19:34:01.477Z,22.6
2017-05-22T19:35:09.570Z,22.6
2017-05-22T19:36:17.652Z,22.5
2017-05-22T19:37:25.736Z,22.5
2017-05-22T19:38:33.824Z,22.6
2017-05-22T19:39:41.912Z,22.6
2017-05-22T19:40:49.999Z,22.5
2017-05-22T19:41:58.086Z,22.6
2017-05-22T19:43:06.174Z,22.6
2017-05-22T19:44:14.262Z,22.6
2017-05-22T19:45:22.353Z,22.6
2017-05-22T19:46:30.493Z,22.6
2017-05-22T19:47:38.527Z,22.6
2017-05-22T19:48:46.613Z,22.5
2017-05-22T19:49:54.705Z,22.6
2017-05-22T19:51:02.789Z,22.5
2017-05-22T19:52:10.878Z,22.5
2017-05-22T19:53:18.967Z,22.6
2017-05-22T19:54:27.055Z,22.6
2017-05-22T19:55:35.141Z,22.6
2017-05-22T19:56:43.226Z,22.6
2017-05-22T19:57:51.317Z,22.5
2017-05-22T19:58:59.407Z,22.5
2017-05-22T20:00:07.498Z,22.5
2017-05-22T20:01:15.584Z,22.6
2017-05-22T20:02:23.676Z,22.5
2017-05-22T20:03:31.757Z,22.5
2017-05-22T20:04:39.844Z,22.5
2017-05-22T20:05:47.927Z,22.5
2017-05-22T20:06:56.013Z,22.5
2017-05-22T20:08:04.101Z,22.5
2017-05-22T20:09:12.195Z,22.4
2017-05-22T20:10:20.282Z,22.5
2017-05-22T20:11:28.370Z,22.5
2017-05-22T20:12:36.456Z,22.5
2017-05-22T20:13:44.542Z,22.5
2017-05-22T20:14:52.636Z,22.5
2017-05-22T20:16:00.725Z,22.5
2017-05-22T20:17:08.812Z,22.5
2017-05-22T20:18:16.900Z,22.6
2017-05-22T20:19:24.993Z,22.5
2017-05-22T20:20:33.073Z,22.4
2017-05-22T20:21:41.159Z,22.5
2017-05-22T20:22:49.246Z,22.4
2017-05-22T20:23:57.339Z,22.5
2017-05-22T20:25:05.418Z,22.5
2017-05-22T20:26:13.516Z,22.5
2017-05-22T20:27:21.596Z,22.4
2017-05-22T20:28:29.687Z,22.4
2017-05-22T20:29:37.809Z,22.4
2017-05-22T20:30:45.853Z,22.4
2017-05-22T20:31:53.941Z,22.3
2017-05-22T20:33:02.032Z,22.4
2017-05-22T20:34:10.116Z,22.4
2017-05-22T20:35:18.201Z,22.4
2017-05-22T20:36:26.288Z,22.4
2017-05-22T20:37:34.377Z,22.4
2017-05-22T20:38:42.462Z,22.4
2017-05-22T20:39:50.551Z,22.4
2017-05-22T20:40:58.640Z,22.4
2017-05-22T20:42:06.727Z,22.4
2017-05-22T20:43:14.809Z,22.3
2017-05-22T20:44:22.897Z,22.3
2017-05-22T20:45:30.987Z,22.4
2017-05-22T20:46:39.095Z,22.4
2017-05-22T20:47:47.162Z,22.3
2017-05-22T20:48:55.261Z,22.4
2017-05-22T20:50:03.348Z,22.4
2017-05-22T20:51:11.433Z,22.3
2017-05-22T20:52:19.525Z,22.3
2017-05-22T20:53:27.608Z,22.3
2017-05-22T20:54:35.696Z,22.3
2017-05-22T20:55:43.784Z,22.3
2017-05-22T20:56:51.870Z,22.3
2017-05-22T20:57:59.959Z,22.3
2017-05-22T20:59:08.046Z,22.3
2017-05-22T21:00:16.133Z,22.3
2017-05-22T21:01:24.219Z,22.2
2017-05-22T21:02:32.307Z,22.3
2017-05-22T21:03:40.396Z,22.3
2017-05-22T21:04:48.478Z,22.3
2017-05-22T21:05:56.572Z,22.3
2017-05-22T21:07:04.655Z,22.3
2017-05-22T21:08:12.741Z,22.2
2017-05-22T21:09:20.829Z,22.3
2017-05-22T21:10:28.916Z,22.3
2017-05-22T21:11:37.007Z,22.3
2017-05-22T21:12:45.090Z,22.2
2017-05-22T21:13:53.179Z,22.2
2017-05-22T21:15:01.267Z,22.3
2017-05-22T21:16:09.360Z,22.3
2017-05-22T21:17:17.438Z,22.2
2017-05-22T21:18:25.533Z,22.2
2017-05-22T21:19:33.612Z,22.2
2017-05-22T21:20:41.699Z,22.2
2017-05-22T21:21:49.788Z,22.2
2017-05-22T21:22:57.875Z,22.2
2017-05-22T21:24:05.965Z,22.2
2017-05-22T21:25:14.050Z,22.2
2017-05-22T21:26:22.138Z,22.2
2017-05-22T21:27:30.221Z,22.2
2017-05-22T21:28:38.308Z,22.2
2017-05-22T21:29:46.392Z,22.2
2017-05-22T21:30:54.481Z,22.1
2017-05-22T21:32:02.569Z,22.2
2017-05-22T21:33:10.671Z,22.2
2017-05-22T21:34:18.744Z,22.2
2017-05-22T21:35:26.830Z,22.2
2017-05-22T21:36:34.918Z,22.1
2017-05-22T21:37:43.001Z,22.1
2017-05-22T21:38:51.090Z,22.1
2017-05-22T21:39:59.180Z,22.1
2017-05-22T21:41:07.287Z,22.1
2017-05-22T21:42:15.357Z,22.1
2017-05-22T21:43:23.443Z,22.1
2017-05-22T21:44:31.530Z,22.1
2017-05-22T21:45:39.640Z,22.1
2017-05-22T21:46:47.705Z,22.1
2017-05-22T21:47:55.792Z,22.1
2017-05-22T21:49:03.878Z,22.1
2017-05-22T21:50:11.962Z,22.1
2017-05-22T21:51:20.052Z,22.1
2017-05-22T21:52:28.143Z,22.2
2017-05-22T21:53:36.232Z,22.1
2017-05-22T21:54:44.314Z,22.1
2017-05-22T21:55:52.394Z,22.0
2017-05-22T21:57:00.483Z,22.1
2017-05-22T21:58:08.568Z,22.1
2017-05-22T21:59:16.661Z,22.0
2017-05-22T22:00:24.746Z,22.0
2017-05-22T22:01:32.829Z,22.0
2017-05-22T22:02:40.930Z,22.0
2017-05-22T22:03:49.011Z,22.0
2017-05-22T22:04:57.099Z,22.1
2017-05-22T22:06:05.184Z,22.0
2017-05-22T22:07:13.271Z,22.1
2017-05-22T22:08:21.366Z,22.0
2017-05-22T22:09:29.446Z,22.0
2017-05-22T22:10:37.532Z,22.0
2017-05-22T22:11:45.621Z,21.9
2017-05-22T22:12:53.704Z,21.8
2017-05-22T22:14:01.797Z,21.9
2017-05-22T22:15:09.882Z,22.0
2017-05-22T22:16:17.973Z,21.9
2017-05-22T22:17:26.051Z,21.9
2017-05-22T22:18:34.148Z,22.0
2017-05-22T22:19:42.247Z,21.9
2017-05-22T22:20:50.315Z,22.0
2017-05-22T22:21:58.400Z,21.9
2017-05-22T22:23:06.484Z,21.9
2017-05-22T22:24:14.569Z,22.0
2017-05-22T22:25:22.657Z,21.9
2017-05-22T22:26:30.750Z,21.9
2017-05-22T22:27:38.835Z,22.0
2017-05-22T22:28:46.919Z,21.9
2017-05-22T22:29:55.006Z,22.0
2017-05-22T22:31:03.092Z,21.9
2017-05-22T22:32:11.183Z,22.0
2017-05-22T22:33:19.265Z,22.0
2017-05-22T22:34:27.352Z,21.9
2017-05-22T22:35:35.437Z,21.9
2017-05-22T22:36:43.530Z,21.9
2017-05-22T22:37:51.614Z,21.8
2017-05-22T22:38:59.698Z,22.0
2017-05-22T22:40:07.789Z,21.8
2017-05-22T22:41:15.872Z,21.8
2017-05-22T22:42:23.959Z,21.8
2017-05-22T22:43:32.043Z,21.8
2017-05-22T22:44:40.129Z,21.8
2017-05-22T22:45:48.215Z,21.8
2017-05-22T22:46:56.306Z,21.8
2017-05-22T22:48:04.392Z,21.8
2017-05-22T22:49:12.477Z,21.9
2017-05-22T22:50:20.563Z,21.8
2017-05-22T22:51:28.650Z,21.8
2017-05-22T22:52:36.736Z,21.8
2017-05-22T22:53:44.823Z,21.8
2017-05-22T22:54:52.909Z,21.8
2017-05-22T22:56:00.999Z,21.8
2017-05-22T22:57:09.082Z,21.8
2017-05-22T22:58:17.172Z,21.8
2017-05-22T22:59:25.258Z,21.8
2017-05-22T23:00:33.342Z,21.8
2017-05-22T23:01:41.428Z,21.8
2017-05-22T23:02:49.513Z,21.8
2017-05-22T23:03:57.601Z,21.7
2017-05-22T23:05:05.688Z,21.8
2017-05-22T23:06:13.783Z,21.7
2017-05-22T23:07:21.866Z,21.8
2017-05-22T23:08:29.954Z,21.7
2017-05-22T23:09:38.040Z,21.8
2017-05-22T23:10:46.132Z,21.7
2017-05-22T23:11:54.219Z,21.7
2017-05-22T23:13:02.306Z,21.7
2017-05-22T23:14:10.418Z,21.7
2017-05-22T23:15:18.480Z,21.6
2017-05-22T23:16:26.568Z,21.8
2017-05-22T23:17:34.651Z,21.7
2017-05-22T23:18:42.737Z,21.6
2017-05-22T23:19:50.824Z,21.6
2017-05-22T23:20:58.911Z,21.7
2017-05-22T23:22:06.995Z,21.6
2017-05-22T23:23:15.084Z,21.6
2017-05-22T23:24:23.170Z,21.6
2017-05-22T23:25:31.259Z,21.7
2017-05-22T23:26:39.366Z,21.6
2017-05-22T23:27:47.433Z,21.6
2017-05-22T23:28:55.517Z,21.7
2017-05-22T23:30:03.605Z,21.7
2017-05-22T23:31:11.692Z,21.6
2017-05-22T23:32:19.810Z,21.6
2017-05-22T23:33:27.866Z,21.7
2017-05-22T23:34:35.953Z,21.6
2017-05-22T23:35:44.039Z,21.5
2017-05-22T23:36:52.130Z,21.6
2017-05-22T23:38:00.211Z,21.6
2017-05-22T23:39:08.296Z,21.6
2017-05-22T23:40:16.383Z,21.6
2017-05-22T23:41:24.469Z,21.6
2017-05-22T23:42:32.556Z,21.6
2017-05-22T23:43:40.650Z,21.7
2017-05-22T23:44:48.735Z,21.6
2017-05-22T23:45:56.823Z,21.7
2017-05-22T23:47:04.908Z,21.6
2017-05-22T23:48:12.998Z,21.7
2017-05-22T23:49:21.082Z,21.6
2017-05-22T23:50:29.166Z,21.6
2017-05-22T23:51:37.255Z,21.6
2017-05-22T23:52:45.345Z,21.6
2017-05-22T23:53:53.430Z,21.6
2017-05-22T23:55:01.513Z,21.6
2017-05-22T23:56:09.600Z,21.6
2017-05-22T23:57:17.686Z,21.7
2017-05-22T23:58:25.780Z,21.7
2017-05-22T23:59:33.896Z,21.6
